Terminal Aerodrome Forecast
Issued by NWS

Home | Current Version | Previous Version | Text Only | Print | Product List | Glossary On
Versions: 1 2 3 4 5 6 7 8 9 10 11 12 13 14 15 16 17 18 19 20 21
051
FTUS41 KPBZ 292107 AAA
TAFDUJ
TAF AMD
KDUJ 292107Z 2921/3018 29005KT 5SM BR VCSH OVC005
     FM292300 00000KT P6SM OVC008
     FM300200 00000KT 3SM BR BKN003
     FM301300 VRB04KT 3SM BR SCT003
     FM301500 11005KT P6SM BKN020=

USA.gov is the U.S. government's official web portal to all federal, state and local government web resources and services.